Time;durP1;ratioP1;P1;durP2;ratioP2;P2;SDS_P1;SDS_P2;PMS_P1;PMS_P2;Temp;Humidity;BMP_temperature;BMP_pressure;BME280_temperature;BME280_humidity;BME280_pressure;Samples;Min_cycle;Max_cycle;Signal;HPM_P1;HPM_P2
2021/05/26 00:01:05;;;;;;;;;;;22.00;77.00;;;;;;5016168;28;88448;-65
2021/05/26 00:03:31;;;;;;;;;;;22.00;77.10;;;;;;5019549;28;88678;-64
2021/05/26 00:05:57;;;;;;;;;;;22.00;77.20;;;;;;5019910;28;88530;-64
2021/05/26 00:08:30;;;;;;;;;;;22.00;77.10;;;;;;5016677;28;87137;-63
2021/05/26 00:10:56;;;;;;;;;;;22.00;77.00;;;;;;5019965;28;87330;-64
2021/05/26 00:13:22;;;;;;;;;;;21.90;77.00;;;;;;5017823;28;88681;-64
2021/05/26 00:15:48;;;;;;;;;;;21.90;77.00;;;;;;5015927;28;87205;-64
2021/05/26 00:18:13;;;;;;;;;;;21.90;77.00;;;;;;5015836;28;88452;-64
2021/05/26 00:20:39;;;;;;;;;;;21.90;77.00;;;;;;5017164;28;89223;-64
2021/05/26 00:23:05;;;;;;;;;;;21.90;77.00;;;;;;5018547;28;87181;-64
2021/05/26 00:25:30;;;;;;;;;;;21.90;76.90;;;;;;5019984;28;87183;-65
2021/05/26 00:27:59;;;;;;;;;;;21.90;77.00;;;;;;5022023;28;89439;-64
2021/05/26 00:30:27;;;;;;;;;;;21.80;76.90;;;;;;5018421;28;87160;-64
2021/05/26 00:32:53;;;;;;;;;;;21.80;76.90;;;;;;5016421;28;89687;-65
2021/05/26 00:35:18;;;;;;;;;;;21.80;76.90;;;;;;5021072;28;86366;-65
2021/05/26 00:37:44;;;;;;;;;;;21.80;76.90;;;;;;5019753;28;88636;-64
2021/05/26 00:40:09;;;;;;;;;;;21.80;76.90;;;;;;5015618;28;89611;-64
2021/05/26 00:42:35;;;;;;;;;;;21.80;77.00;;;;;;5015469;28;88060;-64
2021/05/26 00:45:00;;;;;;;;;;;21.80;76.90;;;;;;5017332;28;89738;-65
2021/05/26 00:47:40;;;;;;;;;;;21.70;76.80;;;;;;5018253;28;87780;-65
2021/05/26 00:50:06;;;;;;;;;;;21.70;76.80;;;;;;5020853;28;87673;-64
2021/05/26 00:52:32;;;;;;;;;;;21.70;76.90;;;;;;5016983;28;88067;-64
2021/05/26 00:54:57;;;;;;;;;;;21.70;76.90;;;;;;5016074;28;87217;-64
2021/05/26 00:57:24;;;;;;;;;;;21.70;76.90;;;;;;5017098;28;88789;-64
2021/05/26 00:59:49;;;;;;;;;;;21.70;76.90;;;;;;5019645;28;88739;-64
2021/05/26 01:02:15;;;;;;;;;;;21.70;76.90;;;;;;5021817;28;87163;-65
2021/05/26 01:04:40;;;;;;;;;;;21.70;76.90;;;;;;5023401;28;87129;-64
2021/05/26 01:07:06;;;;;;;;;;;21.70;76.80;;;;;;5020429;28;89714;-64
2021/05/26 01:09:31;;;;;;;;;;;21.60;76.70;;;;;;5019020;28;87229;-64
2021/05/26 01:11:57;;;;;;;;;;;21.60;76.80;;;;;;5022553;28;87561;-64
2021/05/26 01:14:22;;;;;;;;;;;21.60;76.80;;;;;;5020241;28;87176;-64
2021/05/26 01:16:48;;;;;;;;;;;21.60;76.80;;;;;;5019768;28;89077;-64
2021/05/26 01:19:16;;;;;;;;;;;21.60;77.40;;;;;;5018495;28;89927;-64
2021/05/26 01:21:42;;;;;;;;;;;21.60;76.70;;;;;;5020945;28;87139;-65
2021/05/26 01:24:08;;;;;;;;;;;21.60;76.80;;;;;;5023816;28;87236;-64
2021/05/26 01:26:33;;;;;;;;;;;21.50;76.80;;;;;;5020034;28;87997;-64
2021/05/26 01:28:59;;;;;;;;;;;21.60;76.80;;;;;;5018816;28;87122;-64
2021/05/26 01:31:25;;;;;;;;;;;21.50;76.70;;;;;;5018669;28;88065;-64
2021/05/26 01:33:50;;;;;;;;;;;21.60;76.80;;;;;;5022852;28;89343;-64
2021/05/26 01:36:16;;;;;;;;;;;21.50;76.80;;;;;;5021565;28;88705;-65
2021/05/26 01:38:42;;;;;;;;;;;21.50;76.80;;;;;;5022392;28;88296;-65
2021/05/26 01:41:07;;;;;;;;;;;21.50;76.80;;;;;;5021059;28;87697;-64
2021/05/26 01:43:34;;;;;;;;;;;21.50;76.80;;;;;;5018669;28;87101;-64
2021/05/26 01:46:00;;;;;;;;;;;21.50;76.70;;;;;;5019068;28;89046;-64
2021/05/26 01:48:25;;;;;;;;;;;21.40;76.70;;;;;;5020645;28;87968;-64
2021/05/26 01:50:51;;;;;;;;;;;21.40;76.70;;;;;;5023167;28;87173;-65
2021/05/26 01:53:17;;;;;;;;;;;21.40;76.70;;;;;;5023667;28;88851;-64
2021/05/26 01:55:42;;;;;;;;;;;21.40;76.70;;;;;;5018155;28;88894;-64
2021/05/26 01:58:08;;;;;;;;;;;21.40;76.70;;;;;;5018403;28;89027;-64
2021/05/26 02:00:34;;;;;;;;;;;21.40;77.30;;;;;;5018057;28;87144;-64
2021/05/26 02:03:00;;;;;;;;;;;21.40;76.80;;;;;;5018693;28;88536;-64
2021/05/26 02:05:25;;;;;;;;;;;21.40;76.80;;;;;;5019316;28;89396;-64
2021/05/26 02:07:52;;;;;;;;;;;21.40;76.70;;;;;;5019711;28;87135;-64
2021/05/26 02:12:19;;;;;;;;;;;21.40;76.80;;;;;;5017955;28;89193;-64
2021/05/26 02:13:04;;;;;;;;;;;21.40;76.70;;;;;;5020314;28;86510;-64
2021/05/26 02:15:29;;;;;;;;;;;21.30;76.70;;;;;;5024130;28;87214;-64
2021/05/26 02:17:55;;;;;;;;;;;21.30;76.70;;;;;;5022196;28;88142;-65
2021/05/26 02:20:20;;;;;;;;;;;21.30;76.70;;;;;;5019111;28;88544;-64
2021/05/26 02:22:46;;;;;;;;;;;21.30;76.70;;;;;;5018082;28;88804;-64
2021/05/26 02:25:11;;;;;;;;;;;21.30;76.60;;;;;;5019036;28;88542;-64
2021/05/26 02:27:37;;;;;;;;;;;21.20;76.60;;;;;;5018883;28;87124;-64
2021/05/26 02:30:04;;;;;;;;;;;21.20;76.60;;;;;;5020228;28;87474;-64
2021/05/26 02:32:29;;;;;;;;;;;21.20;76.80;;;;;;5019377;28;87493;-64
2021/05/26 02:34:55;;;;;;;;;;;21.20;76.80;;;;;;5020815;28;87178;-65
2021/05/26 02:37:20;;;;;;;;;;;21.20;76.70;;;;;;5025381;28;87597;-64
2021/05/26 02:39:46;;;;;;;;;;;21.20;76.70;;;;;;5019268;28;87165;-64
2021/05/26 02:42:11;;;;;;;;;;;21.10;76.60;;;;;;5017829;28;89223;-64
2021/05/26 02:44:37;;;;;;;;;;;21.20;76.60;;;;;;5017550;28;88087;-64
2021/05/26 02:47:02;;;;;;;;;;;21.10;76.70;;;;;;5018706;28;87219;-64
2021/05/26 02:49:28;;;;;;;;;;;21.20;76.80;;;;;;5018855;28;87151;-64
2021/05/26 02:51:53;;;;;;;;;;;21.10;76.70;;;;;;5019670;28;88075;-64
2021/05/26 02:54:19;;;;;;;;;;;21.10;76.70;;;;;;5021427;28;87148;-64
2021/05/26 02:56:44;;;;;;;;;;;21.10;76.70;;;;;;5020922;28;88136;-64
2021/05/26 02:59:10;;;;;;;;;;;21.10;76.70;;;;;;5020198;28;89322;-64
2021/05/26 03:01:36;;;;;;;;;;;21.10;76.70;;;;;;5017426;28;88587;-64
2021/05/26 03:04:02;;;;;;;;;;;21.10;76.60;;;;;;5017482;28;90088;-64
2021/05/26 03:06:27;;;;;;;;;;;21.10;76.70;;;;;;5018301;28;87178;-65
2021/05/26 03:08:53;;;;;;;;;;;21.10;76.70;;;;;;5018810;28;88130;-64
2021/05/26 03:11:18;;;;;;;;;;;21.00;76.70;;;;;;5020250;28;89625;-64
2021/05/26 03:13:44;;;;;;;;;;;21.00;76.70;;;;;;5021267;28;87924;-64
2021/05/26 03:16:09;;;;;;;;;;;21.00;76.60;;;;;;5018032;28;88899;-64
2021/05/26 03:18:35;;;;;;;;;;;21.00;76.60;;;;;;5017042;28;88043;-64
2021/05/26 03:21:01;;;;;;;;;;;21.00;76.70;;;;;;5020754;28;87152;-64
2021/05/26 03:23:27;;;;;;;;;;;21.00;76.70;;;;;;5017795;28;89507;-64
2021/05/26 03:25:53;;;;;;;;;;;21.00;76.70;;;;;;5020109;27;86475;-64
2021/05/26 03:28:18;;;;;;;;;;;20.90;76.70;;;;;;5020706;28;87226;-64
2021/05/26 03:30:45;;;;;;;;;;;20.90;76.60;;;;;;5020542;28;88131;-65
2021/05/26 03:33:11;;;;;;;;;;;20.90;76.70;;;;;;5019546;28;88115;-65
2021/05/26 03:35:37;;;;;;;;;;;20.90;76.60;;;;;;5020172;28;89964;-65
2021/05/26 03:38:03;;;;;;;;;;;20.90;76.70;;;;;;5019958;28;89418;-64
2021/05/26 03:40:28;;;;;;;;;;;20.90;76.70;;;;;;5020863;28;87086;-65
2021/05/26 03:42:54;;;;;;;;;;;20.90;76.60;;;;;;5022305;28;88909;-64
2021/05/26 03:45:19;;;;;;;;;;;20.90;76.70;;;;;;5017187;28;88855;-64
2021/05/26 03:47:45;;;;;;;;;;;20.80;76.60;;;;;;5021324;28;87605;-65
2021/05/26 03:50:14;;;;;;;;;;;20.80;76.60;;;;;;5020806;28;86828;-64
2021/05/26 03:52:41;;;;;;;;;;;20.80;76.60;;;;;;5018163;28;88066;-64
2021/05/26 03:55:08;;;;;;;;;;;20.80;76.60;;;;;;5020306;28;88859;-64
2021/05/26 03:57:33;;;;;;;;;;;20.80;76.60;;;;;;5018721;28;90822;-64
2021/05/26 03:59:59;;;;;;;;;;;20.80;76.60;;;;;;5020916;28;87537;-64
2021/05/26 04:02:24;;;;;;;;;;;20.80;76.60;;;;;;5020033;28;88971;-64
2021/05/26 04:04:50;;;;;;;;;;;20.70;76.50;;;;;;5016677;28;87121;-64
2021/05/26 04:07:15;;;;;;;;;;;20.70;76.60;;;;;;5017729;28;87269;-64
2021/05/26 04:09:41;;;;;;;;;;;20.70;76.60;;;;;;5018683;28;87482;-65
2021/05/26 04:12:06;;;;;;;;;;;20.70;76.60;;;;;;5020224;28;87183;-64
2021/05/26 04:14:32;;;;;;;;;;;20.70;76.60;;;;;;5020182;28;88998;-65
2021/05/26 04:16:57;;;;;;;;;;;20.70;76.60;;;;;;5018664;28;88302;-64
2021/05/26 04:19:23;;;;;;;;;;;20.70;76.50;;;;;;5018612;28;87168;-64
2021/05/26 04:21:48;;;;;;;;;;;20.70;76.60;;;;;;5018986;28;88209;-65
2021/05/26 04:24:14;;;;;;;;;;;20.70;76.60;;;;;;5023092;28;89529;-64
2021/05/26 04:26:39;;;;;;;;;;;20.60;76.50;;;;;;5017493;28;87933;-64
2021/05/26 04:29:07;;;;;;;;;;;20.60;76.50;;;;;;5015183;28;88368;-64
2021/05/26 04:31:32;;;;;;;;;;;20.60;76.40;;;;;;5020081;28;87156;-64
2021/05/26 04:33:58;;;;;;;;;;;20.60;76.50;;;;;;5021820;28;87600;-64
2021/05/26 04:36:23;;;;;;;;;;;20.60;76.50;;;;;;5023679;28;87709;-64
2021/05/26 04:38:49;;;;;;;;;;;20.60;76.50;;;;;;5022581;28;88067;-64
2021/05/26 04:41:14;;;;;;;;;;;20.60;76.60;;;;;;5019445;28;87167;-64
2021/05/26 04:43:40;;;;;;;;;;;20.60;76.50;;;;;;5020182;28;89750;-64
2021/05/26 04:46:06;;;;;;;;;;;20.50;76.50;;;;;;5024091;28;88085;-64
2021/05/26 04:48:31;;;;;;;;;;;20.50;76.50;;;;;;5021263;28;88105;-64
2021/05/26 04:50:57;;;;;;;;;;;20.50;76.50;;;;;;5022953;28;87186;-64
2021/05/26 04:53:22;;;;;;;;;;;20.50;76.50;;;;;;5022746;28;87144;-64
2021/05/26 04:55:48;;;;;;;;;;;20.50;76.50;;;;;;5023223;28;88169;-65
2021/05/26 04:58:14;;;;;;;;;;;20.50;76.40;;;;;;5022304;28;87928;-64
2021/05/26 05:00:40;;;;;;;;;;;20.40;76.40;;;;;;5019388;28;88054;-64
2021/05/26 05:03:05;;;;;;;;;;;20.40;76.40;;;;;;5019601;28;86916;-64
2021/05/26 05:05:34;;;;;;;;;;;20.50;76.40;;;;;;5020787;28;87225;-64
2021/05/26 05:08:04;;;;;;;;;;;20.40;76.30;;;;;;5024787;28;89073;-64
2021/05/26 05:10:29;;;;;;;;;;;20.40;76.40;;;;;;5019341;28;88149;-65
2021/05/26 05:12:55;;;;;;;;;;;20.40;76.30;;;;;;5020177;28;88657;-64
2021/05/26 05:15:20;;;;;;;;;;;20.40;76.40;;;;;;5018872;28;89624;-64
2021/05/26 05:17:46;;;;;;;;;;;20.40;76.40;;;;;;5018613;28;87178;-64
2021/05/26 05:20:14;;;;;;;;;;;20.40;76.40;;;;;;5018740;28;89156;-64
2021/05/26 05:22:39;;;;;;;;;;;20.30;76.40;;;;;;5020996;28;88847;-64
2021/05/26 05:25:05;;;;;;;;;;;20.30;76.30;;;;;;5022188;28;88179;-64
2021/05/26 05:27:31;;;;;;;;;;;20.30;76.40;;;;;;5020477;28;87656;-64
2021/05/26 05:29:56;;;;;;;;;;;20.30;76.40;;;;;;5021685;28;87695;-64
2021/05/26 05:32:22;;;;;;;;;;;20.30;76.40;;;;;;5020451;28;87154;-64
2021/05/26 05:34:47;;;;;;;;;;;20.30;76.30;;;;;;5019633;28;88510;-64
2021/05/26 05:37:13;;;;;;;;;;;20.30;76.40;;;;;;5021524;28;87158;-64
2021/05/26 05:39:38;;;;;;;;;;;20.30;76.40;;;;;;5021727;28;87263;-64
2021/05/26 05:42:04;;;;;;;;;;;20.30;76.30;;;;;;5020630;28;89502;-64
2021/05/26 05:44:30;;;;;;;;;;;20.30;76.30;;;;;;5021919;28;87116;-64
2021/05/26 05:46:55;;;;;;;;;;;20.20;76.30;;;;;;5022784;28;88719;-64
2021/05/26 05:49:21;;;;;;;;;;;20.20;76.30;;;;;;5019155;28;88214;-64
2021/05/26 05:51:46;;;;;;;;;;;20.20;76.30;;;;;;5021880;28;87983;-64
2021/05/26 05:54:12;;;;;;;;;;;20.20;76.20;;;;;;5018314;28;88513;-64
2021/05/26 05:56:37;;;;;;;;;;;20.20;76.30;;;;;;5019988;28;87194;-64
2021/05/26 05:59:03;;;;;;;;;;;20.10;76.20;;;;;;5020672;28;88107;-64
2021/05/26 06:01:28;;;;;;;;;;;20.20;76.20;;;;;;5021735;28;88064;-64
2021/05/26 06:03:54;;;;;;;;;;;20.10;76.10;;;;;;5021397;28;87658;-64
2021/05/26 06:06:19;;;;;;;;;;;20.10;76.20;;;;;;5018023;28;88951;-65
2021/05/26 06:08:45;;;;;;;;;;;20.10;76.20;;;;;;5018411;28;87788;-64
2021/05/26 06:11:11;;;;;;;;;;;20.10;76.20;;;;;;5021883;28;87192;-64
2021/05/26 06:13:36;;;;;;;;;;;20.10;76.20;;;;;;5019610;28;89593;-65
2021/05/26 06:16:02;;;;;;;;;;;20.10;76.10;;;;;;5021812;28;86356;-65
2021/05/26 06:18:27;;;;;;;;;;;20.10;76.20;;;;;;5022542;28;87100;-65
2021/05/26 06:20:53;;;;;;;;;;;20.10;76.10;;;;;;5019266;28;88705;-64
2021/05/26 06:23:18;;;;;;;;;;;20.00;76.00;;;;;;5017525;28;88977;-64
2021/05/26 06:25:44;;;;;;;;;;;20.00;76.10;;;;;;5017886;28;88503;-64
2021/05/26 06:28:09;;;;;;;;;;;20.00;76.20;;;;;;5018698;28;88176;-64
2021/05/26 06:30:35;;;;;;;;;;;20.00;76.10;;;;;;5020175;28;87168;-65
2021/05/26 06:33:00;;;;;;;;;;;20.00;76.00;;;;;;5024258;28;87671;-64
2021/05/26 06:35:26;;;;;;;;;;;20.00;76.10;;;;;;5021740;28;87117;-64
2021/05/26 06:37:51;;;;;;;;;;;20.00;76.10;;;;;;5021587;28;88754;-64
2021/05/26 06:40:17;;;;;;;;;;;20.00;76.10;;;;;;5021656;28;87226;-64
2021/05/26 06:42:43;;;;;;;;;;;19.90;76.00;;;;;;5018424;28;88000;-64
2021/05/26 06:45:08;;;;;;;;;;;20.00;76.10;;;;;;5017793;28;87444;-64
2021/05/26 06:47:34;;;;;;;;;;;19.90;75.90;;;;;;5017240;28;88710;-64
2021/05/26 06:50:01;;;;;;;;;;;19.90;76.20;;;;;;5018561;28;87221;-64
2021/05/26 06:52:26;;;;;;;;;;;19.90;76.10;;;;;;5017529;28;87793;-64
2021/05/26 06:54:52;;;;;;;;;;;19.90;76.10;;;;;;5020459;28;89514;-64
2021/05/26 06:57:18;;;;;;;;;;;19.90;76.20;;;;;;5018581;28;87168;-63
2021/05/26 06:59:44;;;;;;;;;;;19.90;76.70;;;;;;5019215;28;89297;-64
2021/05/26 07:02:09;;;;;;;;;;;19.90;76.10;;;;;;5019821;28;87165;-64
2021/05/26 07:04:35;;;;;;;;;;;19.90;76.30;;;;;;5021725;28;88015;-65
2021/05/26 07:07:01;;;;;;;;;;;19.80;76.10;;;;;;5020320;28;88565;-64
2021/05/26 07:09:26;;;;;;;;;;;19.90;76.20;;;;;;5020654;28;88016;-64
2021/05/26 07:11:52;;;;;;;;;;;19.80;76.10;;;;;;5020684;28;89923;-64
2021/05/26 07:14:17;;;;;;;;;;;19.80;76.10;;;;;;5021013;28;88337;-65
2021/05/26 07:16:43;;;;;;;;;;;19.80;76.10;;;;;;5023599;28;87133;-64
2021/05/26 07:19:09;;;;;;;;;;;19.80;76.10;;;;;;5020776;28;89898;-64
2021/05/26 07:21:34;;;;;;;;;;;19.80;76.10;;;;;;5019424;28;88735;-64
2021/05/26 07:24:00;;;;;;;;;;;19.80;76.10;;;;;;5016828;28;87199;-64
2021/05/26 07:26:25;;;;;;;;;;;19.80;76.10;;;;;;5016848;28;87978;-64
2021/05/26 07:28:51;;;;;;;;;;;19.80;76.00;;;;;;5017089;28;86431;-64
2021/05/26 07:31:16;;;;;;;;;;;19.80;76.10;;;;;;5020178;28;88100;-64
2021/05/26 07:33:42;;;;;;;;;;;19.70;76.10;;;;;;5021392;28;88209;-64
2021/05/26 07:36:08;;;;;;;;;;;19.70;76.10;;;;;;5020493;28;88069;-65
2021/05/26 07:38:33;;;;;;;;;;;19.70;76.10;;;;;;5021962;28;88957;-63
2021/05/26 07:40:59;;;;;;;;;;;19.70;76.10;;;;;;5016385;28;87180;-63
2021/05/26 07:43:25;;;;;;;;;;;19.70;76.10;;;;;;5016924;28;88282;-64
2021/05/26 07:45:51;;;;;;;;;;;19.70;76.10;;;;;;5016431;28;89099;-64
2021/05/26 07:48:17;;;;;;;;;;;19.70;76.10;;;;;;5018003;28;87126;-65
2021/05/26 07:50:43;;;;;;;;;;;19.60;76.10;;;;;;5019756;28;87143;-64
2021/05/26 07:53:08;;;;;;;;;;;19.70;76.20;;;;;;5020229;28;87484;-63
2021/05/26 07:55:34;;;;;;;;;;;19.70;76.30;;;;;;5020055;28;87145;-64
2021/05/26 07:57:59;;;;;;;;;;;19.60;76.20;;;;;;5020691;28;88846;-64
2021/05/26 08:00:25;;;;;;;;;;;19.70;76.20;;;;;;5018548;28;88107;-65
2021/05/26 08:02:51;;;;;;;;;;;19.60;76.20;;;;;;5018189;28;89939;-64
2021/05/26 08:05:18;;;;;;;;;;;19.60;76.10;;;;;;5017097;28;90027;-64
2021/05/26 08:07:43;;;;;;;;;;;19.60;76.20;;;;;;5017320;28;87124;-64
2021/05/26 08:10:12;;;;;;;;;;;19.70;76.30;;;;;;5018560;28;87129;-64
2021/05/26 08:12:37;;;;;;;;;;;19.60;76.80;;;;;;5018555;28;89438;-64
2021/05/26 08:15:03;;;;;;;;;;;19.60;76.20;;;;;;5018385;28;88484;-64
2021/05/26 08:17:29;;;;;;;;;;;19.60;76.20;;;;;;5017916;28;89162;-64
2021/05/26 08:19:54;;;;;;;;;;;19.60;76.10;;;;;;5021966;28;87200;-64
2021/05/26 08:22:20;;;;;;;;;;;19.60;76.10;;;;;;5017045;28;87100;-63
2021/05/26 08:24:45;;;;;;;;;;;19.60;76.20;;;;;;5018648;28;89018;-64
2021/05/26 08:27:11;;;;;;;;;;;19.60;76.20;;;;;;5017055;28;87515;-64
2021/05/26 08:29:36;;;;;;;;;;;19.60;76.20;;;;;;5019596;28;87296;-65
2021/05/26 08:32:02;;;;;;;;;;;19.60;76.20;;;;;;5019046;28;89278;-64
2021/05/26 08:34:28;;;;;;;;;;;19.60;76.20;;;;;;5019125;28;87122;-64
2021/05/26 08:36:55;;;;;;;;;;;19.60;76.20;;;;;;5017824;28;88725;-64
2021/05/26 08:39:21;;;;;;;;;;;19.70;76.20;;;;;;5017969;28;88660;-64
2021/05/26 08:41:50;;;;;;;;;;;19.60;76.10;;;;;;5021152;28;86398;-64
2021/05/26 08:44:15;;;;;;;;;;;19.60;76.20;;;;;;5016581;28;89121;-65
2021/05/26 08:46:41;;;;;;;;;;;19.70;76.30;;;;;;5019151;28;87193;-65
2021/05/26 08:49:07;;;;;;;;;;;19.60;76.20;;;;;;5016732;28;88576;-64
2021/05/26 08:51:34;;;;;;;;;;;19.60;76.30;;;;;;5016751;28;88114;-64
2021/05/26 08:53:59;;;;;;;;;;;19.60;76.30;;;;;;5019470;28;87147;-64
2021/05/26 08:56:25;;;;;;;;;;;19.60;76.30;;;;;;5016850;28;88368;-65
2021/05/26 08:58:50;;;;;;;;;;;19.70;76.40;;;;;;5017620;28;87398;-64
2021/05/26 09:01:16;;;;;;;;;;;19.60;76.30;;;;;;5018320;28;88844;-64
2021/05/26 09:03:41;;;;;;;;;;;19.70;76.40;;;;;;5019417;28;88629;-65
2021/05/26 09:06:10;;;;;;;;;;;19.60;76.30;;;;;;5019972;28;86402;-65
2021/05/26 09:08:44;;;;;;;;;;;19.60;76.30;;;;;;5015032;28;87178;-63
2021/05/26 09:11:10;;;;;;;;;;;19.60;76.40;;;;;;5018141;28;87121;-64
2021/05/26 09:13:37;;;;;;;;;;;19.60;76.40;;;;;;5016662;28;88077;-64
2021/05/26 09:16:06;;;;;;;;;;;19.70;76.50;;;;;;5016258;28;87856;-64
2021/05/26 09:18:51;;;;;;;;;;;19.60;76.50;;;;;;5016955;28;89523;-64
2021/05/26 09:21:37;;;;;;;;;;;19.60;76.50;;;;;;5020840;28;87194;-64
2021/05/26 09:24:29;;;;;;;;;;;19.60;76.50;;;;;;5021154;28;87558;-64
2021/05/26 09:27:03;;;;;;;;;;;19.60;76.60;;;;;;5021842;28;90014;-65
2021/05/26 09:29:28;;;;;;;;;;;19.60;76.60;;;;;;5020323;28;88754;-64
2021/05/26 09:32:08;;;;;;;;;;;19.60;76.50;;;;;;5021771;28;88525;-64
2021/05/26 09:34:36;;;;;;;;;;;19.60;76.50;;;;;;5020298;28;87098;-64
2021/05/26 09:37:02;;;;;;;;;;;19.60;76.50;;;;;;5020522;28;89003;-65
2021/05/26 09:39:43;;;;;;;;;;;19.60;76.60;;;;;;5021175;28;90628;-64
2021/05/26 09:42:27;;;;;;;;;;;19.60;76.60;;;;;;5019373;28;87179;-64
2021/05/26 09:45:09;;;;;;;;;;;19.60;76.60;;;;;;5020337;28;87629;-64
2021/05/26 09:47:36;;;;;;;;;;;19.60;76.60;;;;;;5019164;28;89232;-64
2021/05/26 09:50:18;;;;;;;;;;;19.60;76.70;;;;;;5024425;28;87185;-64
2021/05/26 09:53:15;;;;;;;;;;;19.70;76.70;;;;;;5021032;28;88761;-64
2021/05/26 09:55:40;;;;;;;;;;;19.60;76.70;;;;;;5018684;28;88698;-64
2021/05/26 09:58:07;;;;;;;;;;;19.60;76.80;;;;;;5022115;28;88909;-64
2021/05/26 10:00:33;;;;;;;;;;;19.70;76.80;;;;;;5020727;28;89351;-64
2021/05/26 10:02:59;;;;;;;;;;;19.70;76.90;;;;;;5019250;28;87187;-64
2021/05/26 10:05:25;;;;;;;;;;;19.70;76.90;;;;;;5020994;28;88984;-65
2021/05/26 10:07:54;;;;;;;;;;;19.70;77.00;;;;;;5019724;28;88968;-64
2021/05/26 10:10:21;;;;;;;;;;;19.70;77.00;;;;;;5024683;28;87125;-64
2021/05/26 10:12:50;;;;;;;;;;;19.70;76.90;;;;;;5022442;28;88195;-64
2021/05/26 10:15:16;;;;;;;;;;;19.70;77.00;;;;;;5020869;28;88515;-65
2021/05/26 10:17:49;;;;;;;;;;;19.70;77.00;;;;;;5018804;28;88831;-64
2021/05/26 10:20:15;;;;;;;;;;;19.70;77.00;;;;;;5018337;28;89531;-65
2021/05/26 10:22:41;;;;;;;;;;;19.70;77.00;;;;;;5021726;28;86403;-64
2021/05/26 10:25:10;;;;;;;;;;;19.70;77.00;;;;;;5019790;28;87221;-64
2021/05/26 10:27:37;;;;;;;;;;;19.70;77.10;;;;;;5020262;28;90297;-64
2021/05/26 10:30:06;;;;;;;;;;;19.70;77.20;;;;;;5019491;28;89813;-65
2021/05/26 10:32:52;;;;;;;;;;;19.70;77.20;;;;;;5022675;28;90013;-64
2021/05/26 10:35:18;;;;;;;;;;;19.70;77.20;;;;;;5011197;28;87518;-64
2021/05/26 10:37:44;;;;;;;;;;;19.70;77.20;;;;;;5020574;28;87561;-64
2021/05/26 10:40:22;;;;;;;;;;;19.70;77.20;;;;;;5021053;28;89663;-64
2021/05/26 10:42:48;;;;;;;;;;;19.70;77.20;;;;;;5018193;28;87145;-64
2021/05/26 10:45:16;;;;;;;;;;;19.70;77.20;;;;;;5020425;28;87602;-64
2021/05/26 10:47:43;;;;;;;;;;;19.80;77.40;;;;;;5019891;28;88482;-65
2021/05/26 10:50:15;;;;;;;;;;;19.80;77.40;;;;;;5021427;28;87119;-65
2021/05/26 10:52:56;;;;;;;;;;;19.80;77.40;;;;;;5018618;28;87171;-64
2021/05/26 10:55:31;;;;;;;;;;;19.80;77.40;;;;;;5021126;28;90644;-65
2021/05/26 10:58:11;;;;;;;;;;;19.80;77.50;;;;;;5019668;28;88372;-64
2021/05/26 11:00:38;;;;;;;;;;;19.80;77.60;;;;;;5019334;28;89507;-64
2021/05/26 11:03:22;;;;;;;;;;;19.80;77.60;;;;;;5021113;28;87124;-65
2021/05/26 11:05:47;;;;;;;;;;;19.80;77.60;;;;;;5017702;28;88872;-64
2021/05/26 11:08:29;;;;;;;;;;;19.80;77.50;;;;;;5017716;28;89266;-64
2021/05/26 11:10:55;;;;;;;;;;;19.80;77.50;;;;;;5020035;28;87138;-64
2021/05/26 11:13:20;;;;;;;;;;;19.80;77.50;;;;;;5020826;28;87363;-64
2021/05/26 11:15:47;;;;;;;;;;;19.80;77.40;;;;;;5017616;28;87596;-64
2021/05/26 11:18:28;;;;;;;;;;;19.80;77.50;;;;;;5022727;28;87180;-65
2021/05/26 11:20:54;;;;;;;;;;;19.80;77.60;;;;;;5018570;28;90389;-64
2021/05/26 11:23:20;;;;;;;;;;;19.80;77.60;;;;;;5018219;28;87249;-65
2021/05/26 11:25:51;;;;;;;;;;;19.80;77.60;;;;;;5020312;28;87450;-64
2021/05/26 11:28:26;;;;;;;;;;;19.90;77.60;;;;;;5020382;28;88850;-64
2021/05/26 11:31:03;;;;;;;;;;;19.90;77.60;;;;;;5020055;28;87631;-64
2021/05/26 11:33:28;;;;;;;;;;;19.90;77.70;;;;;;5018010;28;87515;-64
2021/05/26 11:35:58;;;;;;;;;;;19.90;77.70;;;;;;5019709;28;88540;-64
2021/05/26 11:38:25;;;;;;;;;;;19.90;77.70;;;;;;5017952;28;87551;-65
2021/05/26 11:40:51;;;;;;;;;;;19.80;77.70;;;;;;5021147;28;88505;-64
2021/05/26 11:43:17;;;;;;;;;;;19.90;77.80;;;;;;5018366;28;87202;-64
2021/05/26 11:45:43;;;;;;;;;;;19.90;77.80;;;;;;5017183;28;88136;-64
2021/05/26 11:48:09;;;;;;;;;;;19.90;77.80;;;;;;5019517;28;89134;-64
2021/05/26 11:50:36;;;;;;;;;;;19.90;77.80;;;;;;5017693;28;87535;-64
2021/05/26 11:53:01;;;;;;;;;;;19.90;77.80;;;;;;5018374;28;87576;-64
2021/05/26 11:55:27;;;;;;;;;;;19.90;77.80;;;;;;5018946;28;87870;-64
2021/05/26 11:57:53;;;;;;;;;;;19.90;77.90;;;;;;5017301;28;87153;-64
2021/05/26 12:00:24;;;;;;;;;;;19.90;78.00;;;;;;5019665;28;87858;-65
2021/05/26 12:02:52;;;;;;;;;;;19.90;78.00;;;;;;5020848;28;88398;-65
2021/05/26 12:05:33;;;;;;;;;;;20.00;78.00;;;;;;5018955;28;87135;-64
2021/05/26 12:08:00;;;;;;;;;;;20.00;78.10;;;;;;5017685;28;89624;-65
2021/05/26 12:10:28;;;;;;;;;;;20.00;78.10;;;;;;5019345;28;88177;-64
2021/05/26 12:13:03;;;;;;;;;;;20.00;78.10;;;;;;5018673;28;89844;-65
2021/05/26 12:15:29;;;;;;;;;;;20.00;78.20;;;;;;5016763;28;87235;-65
2021/05/26 12:17:58;;;;;;;;;;;20.00;78.10;;;;;;5019449;28;87204;-65
2021/05/26 12:20:23;;;;;;;;;;;20.00;78.10;;;;;;5017962;28;87236;-65
2021/05/26 12:22:55;;;;;;;;;;;20.00;78.10;;;;;;5020901;28;88052;-64
2021/05/26 12:25:21;;;;;;;;;;;20.10;78.00;;;;;;5017244;28;88378;-64
2021/05/26 12:27:48;;;;;;;;;;;20.10;78.00;;;;;;5019551;28;88699;-64
2021/05/26 12:30:16;;;;;;;;;;;20.10;78.00;;;;;;5018253;28;87191;-64
2021/05/26 12:32:42;;;;;;;;;;;20.10;78.10;;;;;;5019647;28;88368;-64
2021/05/26 12:35:12;;;;;;;;;;;20.10;78.20;;;;;;5017073;28;90473;-64
2021/05/26 12:37:41;;;;;;;;;;;20.10;78.10;;;;;;5019488;28;87212;-65
2021/05/26 12:40:06;;;;;;;;;;;20.10;78.10;;;;;;5018215;28;87201;-64
2021/05/26 12:42:36;;;;;;;;;;;20.10;78.10;;;;;;5018384;28;88113;-64
2021/05/26 12:45:20;;;;;;;;;;;20.10;78.10;;;;;;5022140;28;87175;-65
2021/05/26 12:47:46;;;;;;;;;;;20.10;78.10;;;;;;5017436;28;89605;-65
2021/05/26 12:50:16;;;;;;;;;;;20.10;78.10;;;;;;5019328;28;88467;-65
2021/05/26 12:52:42;;;;;;;;;;;20.10;78.20;;;;;;5017952;28;88791;-65
2021/05/26 12:55:12;;;;;;;;;;;20.10;78.20;;;;;;5020099;28;89022;-65
2021/05/26 12:57:42;;;;;;;;;;;20.20;78.20;;;;;;5020020;28;87127;-64
2021/05/26 13:00:12;;;;;;;;;;;20.20;78.10;;;;;;5018489;28;88081;-64
2021/05/26 13:02:40;;;;;;;;;;;20.20;78.20;;;;;;5021988;28;89316;-65
2021/05/26 13:05:10;;;;;;;;;;;20.20;78.20;;;;;;5020932;28;87161;-65
2021/05/26 13:07:39;;;;;;;;;;;20.20;78.10;;;;;;5023380;28;88286;-64
2021/05/26 13:10:15;;;;;;;;;;;20.30;78.20;;;;;;5021864;28;87187;-64
2021/05/26 13:12:42;;;;;;;;;;;20.30;78.20;;;;;;5020398;28;89103;-64
2021/05/26 13:15:19;;;;;;;;;;;20.30;78.30;;;;;;5020887;28;89121;-65
2021/05/26 13:17:45;;;;;;;;;;;20.30;78.10;;;;;;5022794;28;86420;-65
2021/05/26 13:20:17;;;;;;;;;;;20.30;78.10;;;;;;5020437;28;87951;-64
2021/05/26 13:22:43;;;;;;;;;;;20.30;78.00;;;;;;5022053;28;87797;-64
2021/05/26 13:25:09;;;;;;;;;;;20.40;78.10;;;;;;5021369;28;88108;-64
2021/05/26 13:27:34;;;;;;;;;;;20.40;78.00;;;;;;5019338;28;89758;-64
2021/05/26 13:30:00;;;;;;;;;;;20.40;78.00;;;;;;5024927;28;89077;-64
2021/05/26 13:32:25;;;;;;;;;;;20.40;78.10;;;;;;5020118;28;87551;-64
2021/05/26 13:34:51;;;;;;;;;;;20.40;78.20;;;;;;5021865;28;88196;-65
2021/05/26 13:37:16;;;;;;;;;;;20.40;78.10;;;;;;5020007;28;88665;-64
2021/05/26 13:39:42;;;;;;;;;;;20.40;78.10;;;;;;5021424;28;88656;-64
2021/05/26 13:42:07;;;;;;;;;;;20.50;78.10;;;;;;5019539;28;88437;-65
2021/05/26 13:44:33;;;;;;;;;;;20.40;78.10;;;;;;5022320;28;87834;-64
2021/05/26 13:46:58;;;;;;;;;;;20.40;78.60;;;;;;5019674;28;88005;-65
2021/05/26 13:49:24;;;;;;;;;;;20.40;78.20;;;;;;5020900;28;89582;-65
2021/05/26 13:51:49;;;;;;;;;;;20.50;78.30;;;;;;5022744;28;87143;-64
2021/05/26 13:54:15;;;;;;;;;;;20.50;78.30;;;;;;5021083;28;88166;-65
2021/05/26 13:56:40;;;;;;;;;;;20.50;78.20;;;;;;5022785;28;87263;-65
2021/05/26 13:59:06;;;;;;;;;;;20.50;78.30;;;;;;5022154;28;88509;-64
2021/05/26 14:01:31;;;;;;;;;;;20.50;78.20;;;;;;5020073;28;87597;-64
2021/05/26 14:03:57;;;;;;;;;;;20.60;78.30;;;;;;5018317;28;87186;-64
2021/05/26 14:06:23;;;;;;;;;;;20.60;78.30;;;;;;5019915;28;86728;-64
2021/05/26 14:08:48;;;;;;;;;;;20.60;78.30;;;;;;5020178;28;88148;-64
2021/05/26 14:11:14;;;;;;;;;;;20.70;78.30;;;;;;5020061;28;87140;-64
2021/05/26 14:13:39;;;;;;;;;;;20.70;78.00;;;;;;5022844;28;88911;-64
2021/05/26 14:16:05;;;;;;;;;;;20.70;77.90;;;;;;5019452;28;87234;-64